Time;durP1;ratioP1;P1;durP2;ratioP2;P2;SDS_P1;SDS_P2;PMS_P1;PMS_P2;Temp;Humidity;BMP_temperature;BMP_pressure;BME280_temperature;BME280_humidity;BME280_pressure;Samples;Min_cycle;Max_cycle;Signal;HPM_P1;HPM_P2
2024/01/06 00:00:28;;;;;;;22.38;13.32;;;;;;;8.09;92.42;100249.47;5070982;28;20059;-74
2024/01/06 00:02:53;;;;;;;23.95;13.75;;;;;;;8.07;92.32;100248.69;5079132;28;20058;-74
2024/01/06 00:05:19;;;;;;;25.88;13.18;;;;;;;8.06;91.68;100254.84;5070965;28;20186;-74
2024/01/06 00:07:44;;;;;;;19.77;12.57;;;;;;;8.02;91.56;100253.25;5086047;28;20146;-74
2024/01/06 00:10:10;;;;;;;24.58;13.65;;;;;;;7.97;91.01;100258.69;5083256;28;20133;-74
2024/01/06 00:12:35;;;;;;;21.55;12.15;;;;;;;7.94;90.32;100261.44;5061333;28;20020;-75
2024/01/06 00:15:01;;;;;;;20.90;12.07;;;;;;;7.88;90.59;100261.66;5077346;28;20028;-78
2024/01/06 00:17:26;;;;;;;21.10;12.18;;;;;;;7.87;90.10;100273.13;5080216;28;20024;-78
2024/01/06 00:19:51;;;;;;;23.17;13.23;;;;;;;7.84;90.23;100274.09;5078253;28;20043;-78
2024/01/06 00:22:18;;;;;;;26.00;13.40;;;;;;;7.81;90.40;100274.22;5084219;28;20027;-78
2024/01/06 00:24:43;;;;;;;22.15;12.20;;;;;;;7.80;90.93;100277.78;5077167;28;20038;-78
2024/01/06 00:27:09;;;;;;;23.05;12.65;;;;;;;7.82;90.18;100280.34;5083661;28;20028;-79
2024/01/06 00:29:34;;;;;;;24.52;12.82;;;;;;;7.78;89.97;100278.72;5084215;28;20027;-79
2024/01/06 00:31:59;;;;;;;23.25;13.27;;;;;;;7.73;89.52;100285.94;5069356;28;20046;-79
2024/01/06 00:34:25;;;;;;;20.35;12.63;;;;;;;7.72;90.20;100286.84;5070322;28;20819;-78
2024/01/06 00:36:50;;;;;;;22.73;12.90;;;;;;;7.69;89.99;100290.44;5089194;28;20475;-79
2024/01/06 00:39:15;;;;;;;24.08;13.38;;;;;;;7.70;90.22;100294.81;5081126;28;20028;-78
2024/01/06 00:41:41;;;;;;;24.63;13.65;;;;;;;7.70;90.64;100294.81;5083778;28;20020;-78
2024/01/06 00:44:06;;;;;;;23.83;14.02;;;;;;;7.71;90.73;100296.53;5059988;28;20107;-79
2024/01/06 00:46:31;;;;;;;25.02;13.82;;;;;;;7.68;90.36;100291.38;5059619;28;20564;-78
2024/01/06 00:48:57;;;;;;;28.98;13.90;;;;;;;7.64;90.35;100295.03;5056714;28;20253;-78
2024/01/06 00:51:22;;;;;;;27.27;13.98;;;;;;;7.64;90.30;100295.03;5082852;28;20036;-78
2024/01/06 00:53:48;;;;;;;27.58;13.70;;;;;;;7.63;90.52;100291.53;5062560;28;20024;-79
2024/01/06 00:56:13;;;;;;;25.80;13.57;;;;;;;7.64;91.23;100290.63;5070941;28;20535;-78
2024/01/06 00:58:39;;;;;;;25.30;12.95;;;;;;;7.65;90.72;100302.03;5085771;28;20069;-79
2024/01/06 01:01:04;;;;;;;24.48;12.80;;;;;;;7.60;90.60;100289.03;5086261;28;20028;-79
2024/01/06 01:03:30;;;;;;;26.40;13.60;;;;;;;7.62;90.58;100307.41;5081397;28;20483;-79
2024/01/06 01:05:55;;;;;;;24.48;13.30;;;;;;;7.59;90.41;100304.84;5055150;28;20028;-78
2024/01/06 01:08:20;;;;;;;26.05;13.48;;;;;;;7.52;90.49;100301.59;5079409;28;20054;-78
2024/01/06 01:10:46;;;;;;;27.75;13.43;;;;;;;7.54;90.23;100306.81;5083584;28;20481;-79
2024/01/06 01:13:11;;;;;;;23.48;12.90;;;;;;;7.53;90.46;100307.72;5087613;28;20513;-78
2024/01/06 01:15:36;;;;;;;25.65;12.68;;;;;;;7.51;90.34;100313.06;5086707;28;20513;-79
2024/01/06 01:18:02;;;;;;;25.30;13.25;;;;;;;7.48;90.50;100315.78;5081343;28;20054;-79
2024/01/06 01:20:27;;;;;;;26.17;14.18;;;;;;;7.50;90.31;100315.72;5084678;28;20230;-79
2024/01/06 01:22:53;;;;;;;26.50;14.00;;;;;;;7.47;90.01;100313.22;5074607;28;20368;-79
2024/01/06 01:25:18;;;;;;;25.50;13.00;;;;;;;7.45;89.99;100315.03;5073543;28;20181;-75
2024/01/06 01:27:43;;;;;;;22.55;12.05;;;;;;;7.41;89.81;100319.53;5078879;28;20032;-74
2024/01/06 01:30:09;;;;;;;19.27;10.98;;;;;;;7.39;89.78;100329.25;5065344;28;20028;-74
2024/01/06 01:32:34;;;;;;;20.42;11.00;;;;;;;7.35;89.20;100335.53;5083646;28;20024;-74
2024/01/06 01:35:03;;;;;;;20.67;10.32;;;;;;;7.34;89.04;100336.44;5060307;28;20020;-74
2024/01/06 01:37:28;;;;;;;21.05;11.23;;;;;;;7.33;88.85;100345.25;5079335;28;20111;-74
2024/01/06 01:39:54;;;;;;;18.52;10.15;;;;;;;7.31;88.72;100333.91;5079007;28;20442;-75
2024/01/06 01:42:19;;;;;;;18.75;9.75;;;;;;;7.33;88.92;100337.38;5077254;28;20546;-74
2024/01/06 01:44:45;;;;;;;16.77;8.80;;;;;;;7.31;88.66;100353.19;5060343;28;20451;-74
2024/01/06 01:47:11;;;;;;;18.08;9.30;;;;;;;7.29;88.52;100352.38;5073127;28;20476;-74
2024/01/06 01:49:38;;;;;;;17.50;8.55;;;;;;;7.26;88.08;100347.22;5056350;28;20063;-75
2024/01/06 01:52:03;;;;;;;16.70;9.48;;;;;;;7.26;87.78;100359.50;5060662;28;20073;-74
2024/01/06 01:54:29;;;;;;;15.23;8.07;;;;;;;7.24;88.19;100350.84;5078243;28;20035;-75
2024/01/06 01:56:54;;;;;;;17.35;9.63;;;;;;;7.26;88.39;100356.88;5078675;28;20367;-74
2024/01/06 01:59:20;;;;;;;15.82;8.77;;;;;;;7.26;87.93;100370.03;5054985;28;20054;-74
2024/01/06 02:01:45;;;;;;;14.73;8.35;;;;;;;7.25;87.95;100365.69;5083284;28;20099;-74
2024/01/06 02:04:12;;;;;;;18.23;9.05;;;;;;;7.20;87.63;100365.84;5086930;28;20028;-74
2024/01/06 02:06:37;;;;;;;16.77;9.15;;;;;;;7.16;87.87;100356.34;5074623;28;20467;-74
2024/01/06 02:09:03;;;;;;;16.50;8.85;;;;;;;7.14;88.06;100366.06;5074380;28;20063;-75
2024/01/06 02:11:28;;;;;;;18.17;8.93;;;;;;;7.16;87.76;100367.72;5086437;28;20052;-74
2024/01/06 02:13:54;;;;;;;15.70;8.93;;;;;;;7.14;87.75;100372.19;5070390;28;20042;-73
2024/01/06 02:16:19;;;;;;;19.40;9.18;;;;;;;7.14;87.62;100379.22;5092558;28;20339;-79
2024/01/06 02:18:44;;;;;;;14.23;8.45;;;;;;;7.09;87.64;100378.50;5090759;28;20028;-78
2024/01/06 02:21:10;;;;;;;16.80;9.18;;;;;;;7.11;87.55;100384.56;5084820;28;20070;-78
2024/01/06 02:23:36;;;;;;;19.17;9.48;;;;;;;7.07;87.21;100389.03;5088214;28;20080;-78
2024/01/06 02:26:02;;;;;;;17.42;9.45;;;;;;;7.02;86.80;100387.47;5080736;28;20453;-77
2024/01/06 02:28:28;;;;;;;15.93;8.88;;;;;;;7.00;86.53;100391.94;5066201;28;20032;-78
2024/01/06 02:30:53;;;;;;;14.00;8.13;;;;;;;6.96;87.10;100399.06;5086483;28;20020;-78
2024/01/06 02:33:19;;;;;;;13.45;7.40;;;;;;;6.92;86.47;100399.22;5072941;28;20607;-79
2024/01/06 02:35:45;;;;;;;12.70;7.38;;;;;;;6.90;86.08;100402.75;5087553;28;20128;-75
2024/01/06 02:38:11;;;;;;;13.65;7.80;;;;;;;6.87;86.89;100407.25;5086025;28;20400;-75
2024/01/06 02:40:36;;;;;;;14.85;7.43;;;;;;;6.86;86.77;100410.78;5070716;28;20019;-74
2024/01/06 02:43:02;;;;;;;16.05;9.05;;;;;;;6.88;86.92;100422.09;5090615;28;20649;-74
2024/01/06 02:45:27;;;;;;;12.88;7.88;;;;;;;6.88;87.22;100425.56;5091061;28;20078;-74
2024/01/06 02:47:52;;;;;;;14.00;8.15;;;;;;;6.87;87.77;100429.13;5086310;28;20081;-74
2024/01/06 02:50:18;;;;;;;14.13;7.80;;;;;;;6.83;87.45;100427.50;5074352;28;20084;-74
2024/01/06 02:52:45;;;;;;;12.70;7.63;;;;;;;6.79;87.03;100432.88;5082318;28;20114;-74
2024/01/06 02:55:10;;;;;;;15.38;8.45;;;;;;;6.76;87.24;100430.34;5073399;28;20028;-74
2024/01/06 02:57:36;;;;;;;11.68;7.38;;;;;;;6.73;87.01;100433.94;5062270;28;20020;-74
2024/01/06 03:00:01;;;;;;;12.65;7.53;;;;;;;6.73;86.93;100440.97;5086377;28;20523;-74
2024/01/06 03:02:26;;;;;;;13.93;7.93;;;;;;;6.73;87.68;100447.09;5089777;28;20045;-74
2024/01/06 03:04:52;;;;;;;14.32;7.13;;;;;;;6.69;85.94;100455.09;5071114;28;20054;-74
2024/01/06 03:07:17;;;;;;;12.98;6.97;;;;;;;6.62;86.17;100468.44;5091970;28;20565;-74
2024/01/06 03:09:43;;;;;;;12.65;7.53;;;;;;;6.57;85.78;100470.31;5087001;28;20079;-74
2024/01/06 03:12:08;;;;;;;10.75;6.55;;;;;;;6.54;85.21;100477.44;5069422;28;20441;-75
2024/01/06 03:14:35;;;;;;;10.73;6.28;;;;;;;6.54;85.43;100480.91;5087582;28;20086;-74
2024/01/06 03:17:00;;;;;;;10.50;6.32;;;;;;;6.52;85.47;100480.09;5091331;28;20047;-74
2024/01/06 03:19:27;;;;;;;10.75;6.38;;;;;;;6.52;85.39;100484.47;5088389;28;20024;-75
2024/01/06 03:21:53;;;;;;;10.93;6.28;;;;;;;6.52;85.09;100487.09;5091794;28;20089;-74
2024/01/06 03:24:18;;;;;;;12.05;6.68;;;;;;;6.51;84.58;100494.13;5090566;28;20056;-74
2024/01/06 03:26:44;;;;;;;11.07;6.90;;;;;;;6.50;84.78;100499.44;5090378;28;20038;-75
2024/01/06 03:29:09;;;;;;;11.40;6.18;;;;;;;6.49;84.70;100490.69;5088852;28;20067;-74
2024/01/06 03:31:34;;;;;;;8.80;5.57;;;;;;;6.44;84.70;100483.88;5088779;28;20480;-74
2024/01/06 03:34:00;;;;;;;9.57;5.72;;;;;;;6.43;85.24;100490.84;5094915;28;20032;-74
2024/01/06 03:36:25;;;;;;;8.23;5.00;;;;;;;6.44;84.68;100494.38;5091219;28;20491;-73
2024/01/06 03:38:50;;;;;;;7.20;4.80;;;;;;;6.42;84.92;100502.28;5069975;28;20043;-74
2024/01/06 03:41:16;;;;;;;8.05;5.00;;;;;;;6.38;84.31;100498.00;5088436;28;20055;-75
2024/01/06 03:43:41;;;;;;;7.78;5.15;;;;;;;6.36;84.43;100494.56;5093640;28;20020;-74
2024/01/06 03:46:06;;;;;;;8.25;5.28;;;;;;;6.36;83.63;100503.31;5093182;28;20032;-74
2024/01/06 03:48:32;;;;;;;7.47;4.95;;;;;;;6.38;84.57;100513.75;5095351;28;20103;-74
2024/01/06 03:50:59;;;;;;;7.88;4.95;;;;;;;6.35;84.62;100513.88;5072225;28;20038;-74
2024/01/06 03:53:24;;;;;;;9.93;5.50;;;;;;;6.33;84.19;100516.50;5074014;28;20024;-74
2024/01/06 03:55:50;;;;;;;11.30;5.72;;;;;;;6.35;84.58;100519.97;5091094;28;20046;-75
2024/01/06 03:58:15;;;;;;;7.90;5.22;;;;;;;6.35;84.28;100524.38;5089973;28;20024;-74
2024/01/06 04:00:40;;;;;;;9.40;5.90;;;;;;;6.32;84.45;100522.69;5070583;28;20032;-74
2024/01/06 04:03:06;;;;;;;8.57;5.32;;;;;;;6.30;84.94;100523.63;5089645;28;20059;-75
2024/01/06 04:05:32;;;;;;;10.82;5.78;;;;;;;6.29;84.63;100520.13;5072727;28;20032;-74
2024/01/06 04:07:57;;;;;;;8.27;5.25;;;;;;;6.22;84.15;100538.72;5089771;28;20460;-74
2024/01/06 04:10:22;;;;;;;9.00;5.38;;;;;;;6.20;83.96;100538.78;5091995;28;20096;-74
2024/01/06 04:12:48;;;;;;;7.60;5.55;;;;;;;6.17;83.96;100545.88;5089922;28;20526;-74
2024/01/06 04:15:13;;;;;;;8.55;6.22;;;;;;;6.10;84.14;100535.50;5085799;28;20510;-74
2024/01/06 04:17:38;;;;;;;9.35;5.85;;;;;;;6.07;84.42;100533.00;5089813;28;20463;-74
2024/01/06 04:20:05;;;;;;;9.80;5.97;;;;;;;5.98;84.22;100535.84;5066749;28;20730;-75
2024/01/06 04:22:30;;;;;;;9.30;6.43;;;;;;;5.96;84.55;100540.25;5090035;28;20024;-74
2024/01/06 04:24:55;;;;;;;10.88;6.63;;;;;;;5.95;85.01;100549.03;5087041;28;20034;-74
2024/01/06 04:27:21;;;;;;;13.05;7.47;;;;;;;5.95;85.11;100543.78;5068435;28;20035;-74
2024/01/06 04:29:46;;;;;;;11.77;7.13;;;;;;;5.99;84.81;100552.47;5085562;28;20028;-75
2024/01/06 04:32:11;;;;;;;10.55;6.45;;;;;;;5.99;84.99;100552.47;5087754;28;20026;-74
2024/01/06 04:34:37;;;;;;;10.75;6.85;;;;;;;5.99;84.67;100553.31;5087754;28;20039;-74
2024/01/06 04:37:02;;;;;;;11.35;6.65;;;;;;;5.97;84.50;100560.38;5088191;28;20028;-75
2024/01/06 04:39:27;;;;;;;10.00;6.15;;;;;;;6.00;85.02;100567.28;5086911;28;20028;-74
2024/01/06 04:41:53;;;;;;;11.23;6.88;;;;;;;5.99;84.87;100566.44;5085222;28;20024;-74
2024/01/06 04:44:20;;;;;;;11.20;6.57;;;;;;;5.96;84.91;100561.25;5088740;28;20043;-74
2024/01/06 04:46:46;;;;;;;11.27;6.05;;;;;;;6.01;84.63;100569.00;5070128;28;20028;-74
2024/01/06 04:49:11;;;;;;;12.20;6.32;;;;;;;6.02;84.45;100574.25;5063245;28;20063;-74
2024/01/06 04:51:36;;;;;;;11.32;6.45;;;;;;;6.03;84.92;100575.97;5084853;28;20339;-74
2024/01/06 04:54:02;;;;;;;11.10;6.68;;;;;;;6.05;85.23;100573.28;5071062;28;20028;-74
2024/01/06 04:56:27;;;;;;;11.30;6.18;;;;;;;6.07;85.01;100579.38;5088787;28;20493;-78
2024/01/06 04:58:52;;;;;;;10.38;7.00;;;;;;;6.04;84.52;100585.53;5067888;28;20496;-78
2024/01/06 05:01:18;;;;;;;11.20;6.55;;;;;;;6.06;84.64;100585.50;5088829;28;20028;-77
2024/01/06 05:03:43;;;;;;;10.77;6.35;;;;;;;6.03;84.64;100577.72;5062476;28;20143;-78
2024/01/06 05:06:09;;;;;;;10.15;6.40;;;;;;;6.07;85.16;100584.63;5061970;28;20062;-77
2024/01/06 05:08:38;;;;;;;11.93;6.63;;;;;;;6.09;85.33;100588.91;5086447;28;20410;-77
2024/01/06 05:11:05;;;;;;;11.88;6.82;;;;;;;6.09;84.54;100591.53;5082907;28;20024;-77
2024/01/06 05:13:30;;;;;;;10.00;6.63;;;;;;;6.08;84.58;100599.47;5088822;28;20039;-78
2024/01/06 05:15:55;;;;;;;11.60;6.28;;;;;;;6.07;85.02;100598.59;5086596;28;20024;-77
2024/01/06 05:18:21;;;;;;;10.20;6.20;;;;;;;6.04;84.73;100597.81;5063605;28;20115;-77
2024/01/06 05:20:46;;;;;;;9.57;6.35;;;;;;;6.06;85.14;100602.13;5081896;28;20059;-78
2024/01/06 05:23:12;;;;;;;10.30;5.65;;;;;;;6.05;84.95;100605.63;5063275;28;20100;-78
2024/01/06 05:25:37;;;;;;;8.73;5.65;;;;;;;6.01;84.31;100606.59;5085115;28;20071;-78
2024/01/06 05:28:03;;;;;;;8.48;5.72;;;;;;;5.97;84.48;100609.34;5086173;28;20035;-78
2024/01/06 05:30:28;;;;;;;9.98;6.07;;;;;;;5.98;84.91;100622.44;5084126;28;20074;-78
2024/01/06 05:32:54;;;;;;;8.98;5.07;;;;;;;5.95;84.79;100619.88;5084085;28;20044;-78
2024/01/06 05:35:19;;;;;;;7.65;5.32;;;;;;;5.92;84.70;100617.31;5086867;28;20027;-77
2024/01/06 05:37:44;;;;;;;9.18;5.25;;;;;;;5.93;85.05;100621.69;5086062;28;20429;-78
2024/01/06 05:40:11;;;;;;;9.40;5.32;;;;;;;5.93;84.17;100623.47;5085029;28;20020;-78
2024/01/06 05:42:36;;;;;;;10.10;5.60;;;;;;;5.92;84.78;100632.22;5077278;28;20031;-78
2024/01/06 05:45:02;;;;;;;7.75;4.53;;;;;;;5.93;84.82;100632.19;5081428;28;20383;-78
2024/01/06 05:47:27;;;;;;;9.93;5.32;;;;;;;5.92;84.27;100629.59;5084540;28;20502;-78
2024/01/06 05:49:53;;;;;;;8.20;5.03;;;;;;;5.91;84.61;100628.69;5085121;28;20086;-79
2024/01/06 05:52:18;;;;;;;8.45;5.25;;;;;;;5.87;84.56;100630.56;5092788;28;20028;-77
2024/01/06 05:54:43;;;;;;;9.00;5.18;;;;;;;5.90;83.86;100640.09;5084052;28;20024;-78
2024/01/06 05:57:09;;;;;;;9.10;5.22;;;;;;;5.87;83.86;100643.69;5089605;28;20028;-78
2024/01/06 05:59:34;;;;;;;9.15;5.40;;;;;;;5.87;83.74;100646.31;5087897;28;20108;-78
2024/01/06 06:02:00;;;;;;;9.75;5.82;;;;;;;5.85;83.60;100648.06;5090026;28;20172;-78
2024/01/06 06:04:25;;;;;;;9.32;5.65;;;;;;;5.82;83.74;100650.75;5086222;28;20103;-78
2024/01/06 06:06:50;;;;;;;8.70;5.05;;;;;;;5.81;83.59;100649.03;5091100;28;20054;-74
2024/01/06 06:09:16;;;;;;;11.10;5.88;;;;;;;5.83;83.52;100649.88;5089633;28;20667;-74
2024/01/06 06:11:41;;;;;;;8.75;4.90;;;;;;;5.81;84.14;100654.28;5089851;28;20481;-74
2024/01/06 06:14:07;;;;;;;6.57;4.72;;;;;;;5.78;83.35;100656.13;5061243;28;20028;-74
2024/01/06 06:16:32;;;;;;;8.00;5.22;;;;;;;5.75;83.19;100669.31;5069202;28;20111;-74
2024/01/06 06:18:58;;;;;;;8.23;4.70;;;;;;;5.74;83.54;100670.22;5087427;28;20058;-75
2024/01/06 06:21:23;;;;;;;8.38;4.63;;;;;;;5.73;83.54;100676.34;5065927;28;20533;-75
2024/01/06 06:23:49;;;;;;;9.65;5.45;;;;;;;5.73;83.33;100685.06;5092264;28;20399;-74
2024/01/06 06:26:14;;;;;;;6.88;4.63;;;;;;;5.68;82.89;100684.31;5089541;28;20024;-74
2024/01/06 06:28:40;;;;;;;8.93;5.05;;;;;;;5.67;83.53;100690.47;5087201;28;20059;-74
2024/01/06 06:31:05;;;;;;;7.50;4.82;;;;;;;5.66;83.00;100686.13;5085144;28;20103;-74
2024/01/06 06:33:30;;;;;;;6.20;4.32;;;;;;;5.66;82.49;100698.38;5091252;28;20043;-74
2024/01/06 06:35:56;;;;;;;6.28;3.88;;;;;;;5.65;82.72;100701.91;5092362;28;20021;-74
2024/01/06 06:38:21;;;;;;;5.35;3.90;;;;;;;5.67;82.32;100700.97;5091572;28;20108;-74
2024/01/06 06:40:47;;;;;;;6.13;4.40;;;;;;;5.62;82.66;100705.44;5085484;28;20483;-74
2024/01/06 06:43:13;;;;;;;6.90;4.82;;;;;;;5.59;82.18;100701.13;5086507;28;20436;-73
2024/01/06 06:45:38;;;;;;;6.95;4.20;;;;;;;5.62;82.79;100708.06;5085636;28;20028;-74
2024/01/06 06:48:04;;;;;;;8.02;5.05;;;;;;;5.59;82.16;100708.13;5088200;28;20063;-73
2024/01/06 06:50:29;;;;;;;8.60;4.90;;;;;;;5.61;83.12;100711.59;5070201;28;20028;-74
2024/01/06 06:52:55;;;;;;;6.85;4.40;;;;;;;5.63;82.71;100715.91;5085687;28;20020;-74
2024/01/06 06:55:20;;;;;;;8.45;4.63;;;;;;;5.67;82.88;100726.34;5091204;28;20058;-73
2024/01/06 06:57:45;;;;;;;10.55;5.40;;;;;;;5.65;82.88;100736.88;5085379;28;20017;-74
2024/01/06 07:00:11;;;;;;;7.65;5.35;;;;;;;5.62;83.14;100744.78;5069347;28;20031;-75
2024/01/06 07:02:37;;;;;;;11.13;5.70;;;;;;;5.55;83.36;100749.31;5072902;28;20096;-74
2024/01/06 07:05:02;;;;;;;9.60;5.90;;;;;;;5.59;83.96;100752.72;5090641;28;20028;-74
2024/01/06 07:07:28;;;;;;;10.60;6.38;;;;;;;5.56;84.52;100758.91;5081403;28;20056;-74
2024/01/06 07:09:53;;;;;;;9.02;6.03;;;;;;;5.56;84.17;100768.53;5082761;28;20691;-74
2024/01/06 07:12:19;;;;;;;12.18;7.00;;;;;;;5.54;84.54;100768.53;5089171;28;20023;-74
2024/01/06 07:14:44;;;;;;;8.90;5.50;;;;;;;5.52;84.10;100767.72;5090649;28;20029;-74
2024/01/06 07:17:09;;;;;;;11.35;6.57;;;;;;;5.47;83.78;100774.81;5085882;28;20040;-77
2024/01/06 07:19:36;;;;;;;10.63;5.55;;;;;;;5.48;83.72;100773.06;5084064;28;20027;-78
2024/01/06 07:22:02;;;;;;;10.40;6.07;;;;;;;5.40;83.71;100775.81;5088980;28;20086;-77
2024/01/06 07:24:27;;;;;;;10.75;6.13;;;;;;;5.36;84.12;100779.41;5072107;28;20467;-77
2024/01/06 07:26:52;;;;;;;12.88;7.28;;;;;;;5.37;84.61;100782.00;5083450;28;20056;-77
2024/01/06 07:29:18;;;;;;;12.07;6.78;;;;;;;5.37;84.65;100786.38;5085032;28;20032;-77
2024/01/06 07:31:44;;;;;;;10.82;6.43;;;;;;;5.37;84.60;100789.88;5089943;28;20032;-77
2024/01/06 07:34:09;;;;;;;10.57;7.07;;;;;;;5.35;84.83;100785.53;5088880;28;20028;-78
2024/01/06 07:36:35;;;;;;;10.93;6.70;;;;;;;5.35;84.31;100796.03;5093081;28;20103;-77
2024/01/06 07:39:00;;;;;;;12.50;7.20;;;;;;;5.31;84.95;100795.22;5091358;28;20822;-77
2024/01/06 07:41:25;;;;;;;12.52;7.63;;;;;;;5.33;85.13;100793.44;5083747;28;20490;-77
2024/01/06 07:43:51;;;;;;;13.80;7.10;;;;;;;5.28;85.56;100794.44;5089236;28;20480;-77
2024/01/06 07:46:16;;;;;;;12.43;7.03;;;;;;;5.29;85.90;100804.00;5091857;28;20034;-77
2024/01/06 07:48:42;;;;;;;10.88;6.40;;;;;;;5.24;86.23;100801.47;5094255;28;20024;-77
2024/01/06 07:51:07;;;;;;;14.43;7.32;;;;;;;5.25;86.64;100808.44;5094068;28;20376;-77
2024/01/06 07:53:33;;;;;;;14.60;7.60;;;;;;;5.29;86.73;100815.38;5090858;28;20707;-78
2024/01/06 07:55:58;;;;;;;13.30;6.28;;;;;;;5.29;86.55;100817.13;5087444;28;20024;-77
2024/01/06 07:58:24;;;;;;;12.68;7.88;;;;;;;5.33;86.53;100826.66;5088374;28;20028;-76
2024/01/06 08:00:49;;;;;;;13.75;6.75;;;;;;;5.34;86.27;100828.38;5079684;28;20383;-77
2024/01/06 08:03:16;;;;;;;12.02;6.78;;;;;;;5.32;86.51;100827.56;5090130;28;20480;-78
2024/01/06 08:05:41;;;;;;;13.38;7.85;;;;;;;5.30;85.87;100829.31;5089054;28;20039;-78
2024/01/06 08:08:07;;;;;;;13.55;7.38;;;;;;;5.30;86.02;100830.19;5085378;28;20077;-74
2024/01/06 08:10:32;;;;;;;12.45;6.93;;;;;;;5.31;86.42;100844.16;5082547;28;20047;-74
2024/01/06 08:12:58;;;;;;;12.88;7.50;;;;;;;5.34;86.11;100846.72;5082262;28;20407;-73
2024/01/06 08:15:24;;;;;;;15.48;7.70;;;;;;;5.33;85.57;100848.50;5086322;28;20096;-74
2024/01/06 08:17:49;;;;;;;12.35;8.23;;;;;;;5.32;86.00;100848.53;5089565;28;20107;-73
2024/01/06 08:20:14;;;;;;;13.30;7.30;;;;;;;5.34;85.99;100860.69;5087546;28;20428;-75
2024/01/06 08:22:40;;;;;;;16.27;7.28;;;;;;;5.37;86.22;100858.03;5084067;28;20047;-73
2024/01/06 08:25:08;;;;;;;13.32;7.80;;;;;;;5.38;86.35;100865.00;5088973;28;20032;-75
2024/01/06 08:27:34;;;;;;;13.80;6.97;;;;;;;5.36;86.23;100865.91;5088673;28;20483;-74
2024/01/06 08:29:59;;;;;;;13.23;7.40;;;;;;;5.37;86.35;100870.28;5067158;28;20031;-74
2024/01/06 08:32:24;;;;;;;14.90;7.38;;;;;;;5.34;86.22;100872.94;5088203;28;20119;-74
2024/01/06 08:34:50;;;;;;;11.30;7.63;;;;;;;5.36;86.50;100879.91;5072016;28;20114;-73
2024/01/06 08:37:15;;;;;;;11.82;7.78;;;;;;;5.32;86.11;100880.00;5089869;28;20044;-78
2024/01/06 08:39:41;;;;;;;12.98;7.30;;;;;;;5.32;86.04;100886.09;5086965;28;20114;-78
2024/01/06 08:42:06;;;;;;;14.73;7.72;;;;;;;5.31;86.57;100888.72;5089822;28;20024;-78
2024/01/06 08:44:31;;;;;;;12.75;8.13;;;;;;;5.28;86.12;100891.41;5089988;28;20264;-78
2024/01/06 08:46:57;;;;;;;14.77;7.88;;;;;;;5.28;86.35;100904.53;5087186;28;20114;-78
2024/01/06 08:49:22;;;;;;;14.05;7.95;;;;;;;5.26;85.91;100901.03;5086762;28;20400;-77
2024/01/06 08:51:47;;;;;;;14.43;7.78;;;;;;;5.22;85.67;100912.47;5084746;28;20020;-77
2024/01/06 08:54:13;;;;;;;10.93;6.97;;;;;;;5.19;85.38;100915.16;5085850;28;20443;-78
2024/01/06 08:56:38;;;;;;;13.45;7.40;;;;;;;5.23;85.45;100920.31;5065938;28;20028;-78
2024/01/06 08:59:03;;;;;;;15.23;7.68;;;;;;;5.22;85.55;100920.31;5087142;28;20099;-77
2024/01/06 09:01:29;;;;;;;11.57;7.18;;;;;;;5.22;85.70;100928.19;5092331;28;20516;-77
2024/01/06 09:03:54;;;;;;;13.18;7.53;;;;;;;5.22;85.97;100925.56;5087508;28;20115;-78
2024/01/06 09:06:20;;;;;;;13.10;7.25;;;;;;;5.26;86.04;100927.25;5091233;28;20059;-78
2024/01/06 09:08:45;;;;;;;13.20;7.57;;;;;;;5.28;86.07;100931.59;5088122;28;20111;-77
2024/01/06 09:11:10;;;;;;;15.10;7.45;;;;;;;5.33;86.17;100935.00;5064836;28;20032;-77
2024/01/06 09:13:36;;;;;;;14.50;7.60;;;;;;;5.35;85.99;100933.19;5086842;28;20039;-77
2024/01/06 09:16:01;;;;;;;13.63;7.65;;;;;;;5.37;86.14;100941.06;5087273;28;20031;-78
2024/01/06 09:18:27;;;;;;;13.18;7.85;;;;;;;5.38;85.83;100945.41;5069646;28;20028;-78
2024/01/06 09:20:53;;;;;;;16.02;7.90;;;;;;;5.37;85.71;100951.53;5085692;28;20369;-77
2024/01/06 09:23:20;;;;;;;14.85;8.00;;;;;;;5.43;85.11;100946.19;5085693;28;20106;-77
2024/01/06 09:25:45;;;;;;;14.20;7.43;;;;;;;5.40;84.97;100950.63;5070541;28;20105;-78
2024/01/06 09:28:11;;;;;;;11.23;7.22;;;;;;;5.41;85.22;100957.56;5088661;28;20425;-78
2024/01/06 09:30:37;;;;;;;14.88;7.55;;;;;;;5.40;85.25;100959.34;5085006;28;20076;-77
2024/01/06 09:33:02;;;;;;;14.73;7.63;;;;;;;5.45;84.95;100959.25;5083335;28;20031;-78
2024/01/06 09:35:28;;;;;;;12.38;7.88;;;;;;;5.38;83.98;100969.00;5090180;28;20112;-77
2024/01/06 09:37:53;;;;;;;13.20;7.97;;;;;;;5.37;83.49;100978.63;5087774;28;20696;-78
2024/01/06 09:40:22;;;;;;;11.80;7.70;;;;;;;5.31;83.51;100973.47;5063242;28;20024;-78
2024/01/06 09:42:49;;;;;;;13.15;7.85;;;;;;;5.35;83.21;100979.53;5083805;28;20081;-77
2024/01/06 09:45:14;;;;;;;10.77;7.13;;;;;;;5.40;82.99;100989.94;5089628;28;20024;-77
2024/01/06 09:47:41;;;;;;;9.88;7.07;;;;;;;5.42;82.88;100986.41;5070433;28;20028;-77
2024/01/06 09:50:09;;;;;;;9.98;6.38;;;;;;;5.44;82.51;100995.09;5078413;28;20483;-77
2024/01/06 09:52:43;;;;;;;10.90;7.63;;;;;;;5.46;82.76;101003.84;5084539;28;20181;-78
2024/01/06 09:55:12;;;;;;;9.88;6.15;;;;;;;5.50;82.72;101000.28;5085904;28;20070;-78
2024/01/06 09:57:38;;;;;;;11.82;8.00;;;;;;;5.51;82.13;101009.00;5081433;28;20453;-77
2024/01/06 10:00:05;;;;;;;9.82;6.93;;;;;;;5.53;82.36;101010.69;5063414;28;20028;-77
2024/01/06 10:02:33;;;;;;;10.40;6.97;;;;;;;5.55;82.31;101011.53;5081555;28;20080;-77
2024/01/06 10:04:59;;;;;;;10.65;7.28;;;;;;;5.39;82.16;101010.06;5090509;28;20028;-77
2024/01/06 10:07:28;;;;;;;12.88;7.50;;;;;;;5.32;83.08;101018.91;5070088;28;20076;-78
2024/01/06 10:09:55;;;;;;;10.75;7.35;;;;;;;5.32;83.20;101018.91;5083855;28;20105;-77
2024/01/06 10:12:26;;;;;;;10.55;7.13;;;;;;;5.35;83.44;101026.72;5079713;28;20025;-77
2024/01/06 10:14:52;;;;;;;11.95;7.05;;;;;;;5.29;82.60;101022.44;5082354;28;20110;-77
2024/01/06 10:17:21;;;;;;;10.38;6.32;;;;;;;5.33;83.00;101044.25;5081502;28;20099;-77
2024/01/06 10:19:48;;;;;;;9.32;6.30;;;;;;;5.33;82.21;101041.63;5075770;28;20020;-77
2024/01/06 10:22:13;;;;;;;11.20;6.70;;;;;;;5.46;81.99;101043.16;5072796;28;20024;-77
2024/01/06 10:24:39;;;;;;;11.48;7.10;;;;;;;5.39;82.16;101038.88;5084252;28;20118;-77
2024/01/06 10:27:04;;;;;;;13.25;7.40;;;;;;;5.33;82.54;101044.25;5084336;28;20500;-77
2024/01/06 10:29:30;;;;;;;10.38;7.10;;;;;;;5.31;83.09;101044.25;5081866;28;20029;-77
2024/01/06 10:31:55;;;;;;;11.98;7.47;;;;;;;5.30;82.82;101049.50;5068993;28;20099;-77
2024/01/06 10:34:21;;;;;;;11.00;7.35;;;;;;;5.28;82.95;101048.69;5086928;28;20031;-77
2024/01/06 10:36:47;;;;;;;12.70;7.75;;;;;;;5.31;83.34;101048.63;5063886;28;20467;-77
2024/01/06 10:39:15;;;;;;;11.93;7.68;;;;;;;5.37;83.49;101041.53;5085077;28;20023;-77
2024/01/06 10:41:42;;;;;;;12.25;7.25;;;;;;;5.42;83.31;101051.09;5086584;28;20471;-78
2024/01/06 10:44:09;;;;;;;12.45;6.82;;;;;;;5.41;83.06;101052.84;5090882;28;20028;-77
2024/01/06 10:46:34;;;;;;;11.48;6.47;;;;;;;5.42;82.36;101054.59;5091050;28;20093;-78
2024/01/06 10:49:00;;;;;;;10.38;6.63;;;;;;;5.36;82.25;101060.78;5071066;28;20438;-77
2024/01/06 10:51:29;;;;;;;9.75;6.72;;;;;;;5.38;82.63;101059.00;5088026;28;20035;-77
2024/01/06 10:53:57;;;;;;;9.85;6.28;;;;;;;5.38;82.22;101056.38;5071567;28;20024;-76
2024/01/06 10:56:24;;;;;;;11.30;6.60;;;;;;;5.34;81.08;101062.56;5084313;28;20468;-77
2024/01/06 10:58:51;;;;;;;10.20;6.63;;;;;;;5.31;81.04;101061.72;5089970;28;20028;-77
2024/01/06 11:01:22;;;;;;;11.48;7.45;;;;;;;5.31;80.88;101061.72;5084686;28;20042;-77
2024/01/06 11:03:48;;;;;;;11.50;7.13;;;;;;;5.30;81.18;101067.88;5067570;28;20122;-77
2024/01/06 11:06:14;;;;;;;12.13;6.63;;;;;;;5.28;81.25;101070.53;5071045;28;20032;-77
2024/01/06 11:08:57;;;;;;;9.65;7.05;;;;;;;5.36;81.30;101070.38;5086524;28;20062;-74
2024/01/06 11:11:23;;;;;;;10.68;6.38;;;;;;;5.36;81.08;101073.91;5087089;28;20039;-73
2024/01/06 11:13:49;;;;;;;12.65;6.65;;;;;;;5.35;81.08;101073.91;5074955;28;20552;-74
2024/01/06 11:16:34;;;;;;;10.05;7.15;;;;;;;5.40;81.51;101077.31;5088826;28;20051;-74
2024/01/06 11:18:59;;;;;;;8.20;6.13;;;;;;;5.41;81.08;101079.06;5084269;28;20074;-73